Details From FSIA - SEYCHELLES INTL
To FMNN - FASCENE
Flight Number -
Tags generated
Created
Modified
Stats Distance 756 nm / 1,400 km
Max Altitude 34,000 ft / 10,363 m
Waypoints 8
Social Downloads 3
Likes 0
Share

Download

Looking for another format? Having issues loading an existing format? Contact us
Advertisement - Login to hide

Notes

Basic altitude profile: - Ascent Rate: 2500ft/min - Ascent Speed: 250kts - Cruise Altitude: 35000ft - Cruise Speed: 420kts - Descent Rate: 1500ft/min - Descent Speed: 250kts Options: - Use NATs: yes - Use PACOTS: yes - Use low airways: yes - Use high airways: yes

Route

FSIA PRA UB459 UVDUK 1200S05000E DO FMNN

ID Type Via Altitude (ft/m) Position (lat/lon) Dist (leg/tot) Name
O FSIA APT - 0 / 0 -4.67438 / 55.52183 - / 0 nm SEYCHELLES INTL
PRA VOR - 8,800 / 2,682 -4.30737 / 55.70707 24 / 24 nm PRASLIN VOR-DME
NORSI FIX UB459 (AWY-HI) 34,000 / 10,363 -7.25417 / 54.12139 200 / 225 nm
MIROV FIX UB459 (AWY-HI) 34,000 / 10,363 -10.00000 / 52.60000 188 / 413 nm
UVDUK FIX UB459 (AWY-HI) 34,000 / 10,363 -11.67278 / 51.66333 114 / 528 nm
1200S05000E LATLON - 26,400 / 8,047 -12.00000 / 50.00000 99 / 627 nm
DO NDB - 16,400 / 4,999 -12.34633 / 49.28944 46 / 674 nm ARRACHART NDB
O FMNN APT - 0 / 0 -13.31207 / 48.31482 81 / 755 nm FASCENE

Altitude Profile

Advertisement - Login to hide

Weather


0- 5 10 15 20 25 30 35+ Temperature / °C

Clouds and Precipitation
Forecast for 2020-06-01 18:00 UTC. Updated 3 hours ago

Ground ~20,000 ft ~40,000 ft Winds

FSIA

Details ICAO FSIA (SEZ)
Name Seychelles Intl
Region Seychelles
Timezone Unknown
Stats Elevation 8 ft / 2 m (AMSL)
Location -4.674370° 55.521800°
Runways 1
Magnetic Variation 4.970° W

METAR

FSIA 011800Z 15008KT 120V180 3700 -SHRA BKN016 26/24 Q1013 TEMPO 8000

Decode

TAF

TAF FSIA 011700Z 0118/0218 15015KT 9999 SCT020 PROB40 TEMPO 0118/0124 -SHRA BKN018

Decode

Departure Runways

ID Width Length Bearing (true/mag) Surface Threshold Overrun Markings Lighting
13 151 ft / 46 m 9,809 ft / 2,990 m 125.05° / 130.02° CONCRETE 984 ft / 300 m 302 ft / 92 m PREC-APP EDGE THRESHOLD SALS REIL-OMNI
31 151 ft / 46 m 9,809 ft / 2,990 m 305.05° / 310.02° CONCRETE 984 ft / 300 m 115 ft / 35 m PREC-APP EDGE THRESHOLD SALS REIL-OMNI

FMNN

Details ICAO FMNN (NOS)
Name Nosy-Be Fascene
Region Comoros, Mayotte, Réunion and Madagascar
Timezone Indian/Antananarivo (UTC+3.0)
Stats Elevation 35 ft / 11 m (AMSL)
Location -13.312200° 48.314700°
Runways 1
Magnetic Variation 9.495° W

METAR

Not found

TAF

TAF FMNN 011700Z 0118/0218 24010KT 9999 FEW020 SCT040 BECMG 0120/0122 03005KT PROB30 TEMPO 0200/0204 4500 SHRA

Decode

Destination Runways

ID Width Length Bearing (true/mag) Surface Threshold Overrun Markings Lighting
05 148 ft / 45 m 7,323 ft / 2,232 m 42.93° / 52.43° ASPHALT 2,306 ft / 703 m 0 ft / 0 m APP EDGE THRESHOLD
23 148 ft / 45 m 7,323 ft / 2,232 m 222.93° / 232.42° ASPHALT 0 ft / 0 m 0 ft / 0 m APP EDGE THRESHOLD

Popular Alternatives